Time;durP1;ratioP1;P1;durP2;ratioP2;P2;SDS_P1;SDS_P2;PMS_P1;PMS_P2;Temp;Humidity;BMP_temperature;BMP_pressure;BME280_temperature;BME280_humidity;BME280_pressure;Samples;Min_cycle;Max_cycle;Signal;HPM_P1;HPM_P2
2023/01/10 00:00:23;;;;;;;24.50;7.50;;;6.30;99.90;;;;;;5031478;28;20680;-78
2023/01/10 00:02:50;;;;;;;22.57;6.93;;;6.30;99.90;;;;;;5023056;28;20226;-79
2023/01/10 00:05:18;;;;;;;14.53;4.87;;;6.30;99.90;;;;;;5029170;28;20209;-77
2023/01/10 00:07:46;;;;;;;19.27;6.03;;;6.30;99.90;;;;;;5028453;28;20206;-77
2023/01/10 00:10:13;;;;;;;21.77;6.20;;;6.20;99.90;;;;;;5025129;28;20214;-77
2023/01/10 00:15:26;;;;;;;26.97;8.07;;;6.70;99.90;;;;;;5025896;28;20301;-78
2023/01/10 00:17:53;;;;;;;25.30;7.47;;;6.20;99.90;;;;;;5025152;28;20214;-78
2023/01/10 00:20:20;;;;;;;24.87;7.13;;;6.20;99.90;;;;;;5032767;28;20204;-79
2023/01/10 00:22:49;;;;;;;21.33;6.30;;;;;;;;;;5031661;28;20199;-79
2023/01/10 00:25:18;;;;;;;19.03;6.23;;;6.30;99.90;;;;;;5041715;28;20205;-79
2023/01/10 00:27:48;;;;;;;25.37;6.57;;;6.40;99.90;;;;;;5040575;28;20219;-80
2023/01/10 00:30:15;;;;;;;17.60;5.10;;;6.50;99.90;;;;;;5033892;28;20209;-79
2023/01/10 00:32:44;;;;;;;18.07;5.53;;;6.60;99.90;;;;;;5027735;28;20236;-79
2023/01/10 00:35:12;;;;;;;18.00;5.63;;;6.70;99.90;;;;;;5030413;28;20733;-79
2023/01/10 00:37:41;;;;;;;17.80;5.20;;;6.70;99.90;;;;;;5027741;28;20200;-79
2023/01/10 00:40:10;;;;;;;19.10;4.80;;;6.80;99.90;;;;;;5029081;28;20208;-79
2023/01/10 00:45:29;;;;;;;18.03;5.43;;;6.70;99.90;;;;;;5508679;22;20238;-79
2023/01/10 00:47:58;;;;;;;21.50;5.77;;;6.70;99.90;;;;;;5043123;28;20211;-80
2023/01/10 00:50:25;;;;;;;20.63;6.90;;;6.70;99.90;;;;;;5062097;28;20212;-79
2023/01/10 00:52:51;;;;;;;26.27;6.97;;;6.70;99.90;;;;;;5032819;28;20225;-79
2023/01/10 00:55:18;;;;;;;21.67;6.63;;;6.70;99.90;;;;;;5053529;28;20212;-79
2023/01/10 00:57:45;;;;;;;48.47;10.87;;;6.70;99.90;;;;;;5075272;22;20194;-78
2023/01/10 01:00:13;;;;;;;25.13;9.10;;;6.70;99.90;;;;;;5052162;28;20215;-78
2023/01/10 01:02:40;;;;;;;25.97;8.70;;;6.70;99.90;;;;;;5033800;28;20207;-77
2023/01/10 01:05:09;;;;;;;28.33;8.43;;;6.70;99.90;;;;;;5048019;28;20220;-77
2023/01/10 01:07:36;;;;;;;29.57;8.93;;;6.70;99.90;;;;;;5043022;28;20204;-77
2023/01/10 01:12:47;;;;;;;33.67;8.40;;;6.70;99.90;;;;;;5043097;28;20290;-77
2023/01/10 01:15:14;;;;;;;24.33;6.47;;;6.70;99.90;;;;;;5048161;28;20246;-77
2023/01/10 01:17:41;;;;;;;30.57;9.30;;;6.80;99.90;;;;;;5037531;28;20205;-77
2023/01/10 01:20:11;;;;;;;29.63;7.83;;;6.90;99.90;;;;;;5042942;28;20205;-77
2023/01/10 01:22:38;;;;;;;28.13;6.80;;;6.90;99.90;;;;;;5043048;28;20216;-77
2023/01/10 01:25:05;;;;;;;24.37;7.20;;;6.90;99.90;;;;;;5049796;28;20309;-77
2023/01/10 01:27:33;;;;;;;20.03;6.30;;;7.00;99.90;;;;;;5054465;28;20205;-77
2023/01/10 01:30:01;;;;;;;19.67;5.57;;;7.10;99.90;;;;;;5030286;28;20307;-77
2023/01/10 01:32:28;;;;;;;20.23;5.13;;;7.10;99.90;;;;;;5038339;28;20263;-77
2023/01/10 01:34:55;;;;;;;21.77;6.20;;;7.10;99.90;;;;;;5054169;28;20204;-77
2023/01/10 01:37:23;;;;;;;20.80;5.57;;;7.20;99.90;;;;;;5030590;28;20214;-77
2023/01/10 01:39:50;;;;;;;24.63;5.50;;;7.20;99.90;;;;;;5045823;28;20236;-77
2023/01/10 01:42:24;;;;;;;20.60;5.77;;;7.30;99.90;;;;;;5055020;28;20828;-77
2023/01/10 01:45:33;;;;;;;16.90;5.13;;;7.20;99.90;;;;;;5034589;28;20292;-77
2023/01/10 01:48:15;;;;;;;21.03;5.30;;;7.30;99.90;;;;;;5031488;28;20230;-77
2023/01/10 01:50:46;;;;;;;18.70;5.80;;;7.30;99.90;;;;;;5054807;28;20204;-77
2023/01/10 01:53:19;;;;;;;20.13;6.20;;;7.30;99.90;;;;;;5032737;28;20301;-78
2023/01/10 01:55:48;;;;;;;23.40;6.13;;;7.30;99.90;;;;;;5059578;28;20248;-77
2023/01/10 01:58:19;;;;;;;24.10;5.77;;;7.20;99.90;;;;;;5051565;28;20741;-77
2023/01/10 02:00:47;;;;;;;20.00;5.20;;;7.20;99.90;;;;;;5060185;28;20588;-77
2023/01/10 02:03:14;;;;;;;21.57;6.00;;;7.20;99.90;;;;;;5048688;28;20209;-77
2023/01/10 02:05:44;;;;;;;20.23;5.63;;;7.20;99.90;;;;;;5024654;28;20304;-78
2023/01/10 02:08:12;;;;;;;17.40;4.57;;;7.20;99.90;;;;;;5043990;28;20224;-77
2023/01/10 02:10:47;;;;;;;20.77;5.47;;;7.20;99.90;;;;;;5062293;28;20208;-77
2023/01/10 02:13:16;;;;;;;18.10;5.40;;;7.10;99.90;;;;;;5057581;28;20309;-76
2023/01/10 02:15:43;;;;;;;16.10;5.07;;;7.10;99.90;;;;;;5062570;28;20201;-77
2023/01/10 02:18:10;;;;;;;21.90;5.30;;;7.00;99.90;;;;;;5033021;28;20229;-78
2023/01/10 02:20:49;;;;;;;19.30;5.03;;;6.90;99.90;;;;;;5047022;28;20202;-77
2023/01/10 02:23:48;;;;;;;23.97;5.63;;;6.80;99.90;;;;;;5036390;28;20808;-77
2023/01/10 02:26:45;;;;;;;25.77;5.47;;;6.70;99.90;;;;;;5048427;28;20804;-77
2023/01/10 02:29:51;;;;;;;18.43;4.50;;;6.50;99.90;;;;;;5020325;28;20237;-78
2023/01/10 02:32:33;;;;;;;21.63;5.17;;;6.40;99.90;;;;;;5024260;28;20235;-77
2023/01/10 02:35:09;;;;;;;21.13;5.40;;;6.30;99.90;;;;;;5028447;28;20609;-77
2023/01/10 02:37:49;;;;;;;20.33;5.27;;;6.10;99.90;;;;;;5034657;28;20584;-78
2023/01/10 02:40:24;;;;;;;22.30;5.60;;;6.20;99.90;;;;;;5029384;28;20206;-77
2023/01/10 02:42:58;;;;;;;24.03;5.07;;;6.10;99.90;;;;;;5050885;28;20202;-78
2023/01/10 02:45:29;;;;;;;19.03;4.73;;;6.10;99.90;;;;;;5037880;28;20300;-78
2023/01/10 02:47:58;;;;;;;20.80;5.73;;;6.10;99.90;;;;;;5034148;28;20256;-77
2023/01/10 02:50:57;;;;;;;25.13;5.37;;;6.10;99.90;;;;;;5051345;28;20290;-78
2023/01/10 02:53:31;;;;;;;24.27;5.70;;;6.10;99.90;;;;;;5062167;28;20236;-78
2023/01/10 02:56:22;;;;;;;20.77;5.33;;;6.00;99.90;;;;;;5039054;28;20285;-77
2023/01/10 02:59:17;;;;;;;22.27;4.90;;;6.00;99.90;;;;;;5057979;28;20256;-77
2023/01/10 03:01:55;;;;;;;20.37;4.73;;;6.10;99.90;;;;;;5057811;28;20213;-76
2023/01/10 03:04:33;;;;;;;22.07;5.50;;;6.10;99.90;;;;;;5038396;28;20581;-77
2023/01/10 03:07:14;;;;;;;21.90;5.50;;;6.10;99.90;;;;;;5050990;28;20286;-77
2023/01/10 03:09:49;;;;;;;19.13;5.30;;;6.10;99.90;;;;;;5032985;28;20228;-75
2023/01/10 03:12:21;;;;;;;23.10;5.60;;;6.20;99.90;;;;;;5041242;28;20219;-76
2023/01/10 03:14:49;;;;;;;21.00;5.70;;;6.20;99.90;;;;;;5038621;28;20211;-76
2023/01/10 03:17:16;;;;;;;30.37;6.00;;;6.10;99.90;;;;;;5028762;28;20215;-77
2023/01/10 03:19:50;;;;;;;22.43;5.30;;;6.10;99.90;;;;;;5035958;28;20227;-77
2023/01/10 03:22:18;;;;;;;20.73;5.13;;;6.00;99.90;;;;;;5061318;28;20199;-77
2023/01/10 03:24:48;;;;;;;26.27;6.20;;;6.00;99.90;;;;;;5037361;28;20217;-76
2023/01/10 03:27:21;;;;;;;20.60;5.60;;;5.90;99.90;;;;;;5057266;28;20766;-77
2023/01/10 03:29:54;;;;;;;29.03;5.60;;;5.80;99.90;;;;;;5032791;28;20364;-76
2023/01/10 03:32:26;;;;;;;22.63;5.97;;;5.70;99.90;;;;;;5040453;28;20206;-77
2023/01/10 03:34:56;;;;;;;24.60;6.30;;;5.70;99.90;;;;;;5034509;28;20222;-78
2023/01/10 03:37:30;;;;;;;20.63;5.37;;;5.60;99.90;;;;;;5032255;28;20977;-77
2023/01/10 03:40:08;;;;;;;23.00;6.00;;;5.50;99.90;;;;;;5027742;28;20479;-77
2023/01/10 03:45:36;;;;;;;22.33;6.13;;;5.40;99.90;;;;;;5027784;28;20731;-77
2023/01/10 03:48:06;;;;;;;21.97;5.37;;;6.00;99.90;;;;;;5053869;28;20230;-78
2023/01/10 03:50:37;;;;;;;25.63;6.43;;;5.30;99.90;;;;;;5045885;28;20268;-77
2023/01/10 03:53:05;;;;;;;20.77;5.87;;;5.30;99.90;;;;;;5036949;28;20385;-77
2023/01/10 03:55:33;;;;;;;20.27;5.53;;;5.20;99.90;;;;;;5024704;28;20690;-78
2023/01/10 03:58:00;;;;;;;28.93;5.70;;;5.20;99.90;;;;;;5043409;28;20257;-77
2023/01/10 04:00:28;;;;;;;22.07;5.83;;;5.20;99.90;;;;;;5037214;28;20220;-77
2023/01/10 04:02:57;;;;;;;23.83;5.60;;;5.30;99.90;;;;;;5036808;28;20207;-77
2023/01/10 04:05:23;;;;;;;24.93;5.37;;;5.30;99.90;;;;;;5036451;28;20214;-77
2023/01/10 04:07:52;;;;;;;26.40;6.03;;;5.40;99.90;;;;;;5037864;28;20242;-77
2023/01/10 04:10:19;;;;;;;20.97;5.70;;;5.50;99.90;;;;;;5026584;28;20664;-78
2023/01/10 04:12:47;;;;;;;22.27;5.37;;;5.50;99.90;;;;;;5026654;28;20240;-77
2023/01/10 04:15:14;;;;;;;27.03;6.00;;;5.60;99.90;;;;;;5049179;28;20236;-79
2023/01/10 04:17:41;;;;;;;29.97;6.90;;;5.20;99.90;;;;;;5050665;28;20837;-76
2023/01/10 04:20:10;;;;;;;26.60;5.40;;;5.80;99.90;;;;;;5040879;28;20206;-78
2023/01/10 04:22:37;;;;;;;23.50;5.70;;;5.80;99.90;;;;;;5036427;28;20205;-78
2023/01/10 04:25:06;;;;;;;28.47;6.43;;;5.80;99.90;;;;;;5035035;28;20226;-77
2023/01/10 04:27:33;;;;;;;27.90;6.23;;;5.80;99.90;;;;;;5052179;28;20685;-77
2023/01/10 04:30:00;;;;;;;18.27;5.27;;;5.70;99.90;;;;;;5025925;28;20211;-77
2023/01/10 04:32:26;;;;;;;21.83;6.07;;;5.70;99.90;;;;;;5041200;28;20209;-77
2023/01/10 04:34:54;;;;;;;22.20;5.63;;;5.60;99.90;;;;;;5050265;28;20323;-78
2023/01/10 04:37:21;;;;;;;24.60;6.10;;;5.60;99.90;;;;;;5043767;28;20229;-78
2023/01/10 04:39:47;;;;;;;22.17;5.47;;;5.50;99.90;;;;;;5052808;28;20658;-78
2023/01/10 04:42:16;;;;;;;24.37;4.90;;;5.50;99.90;;;;;;5033730;28;20211;-79
2023/01/10 04:44:43;;;;;;;20.97;5.27;;;5.40;99.90;;;;;;5063441;28;20303;-79
2023/01/10 04:47:10;;;;;;;28.67;6.43;;;5.50;99.90;;;;;;5028909;28;20221;-77
2023/01/10 04:49:37;;;;;;;24.90;6.17;;;5.50;99.90;;;;;;5058618;28;20767;-78
2023/01/10 04:52:03;;;;;;;19.27;5.20;;;5.50;99.90;;;;;;5033078;28;20207;-78
2023/01/10 04:54:30;;;;;;;20.17;5.40;;;5.50;99.90;;;;;;5032283;28;20318;-79
2023/01/10 04:56:57;;;;;;;23.90;6.33;;;5.50;99.90;;;;;;5025570;28;20218;-78
2023/01/10 04:59:25;;;;;;;22.17;5.37;;;5.50;99.90;;;;;;5049725;28;20235;-78
2023/01/10 05:01:52;;;;;;;31.80;5.10;;;5.40;99.90;;;;;;5032262;28;20329;-78
2023/01/10 05:04:19;;;;;;;28.50;6.33;;;5.40;99.90;;;;;;5035737;28;20558;-78
2023/01/10 05:06:48;;;;;;;26.60;6.13;;;5.40;99.90;;;;;;5027841;28;20209;-78
2023/01/10 05:09:15;;;;;;;25.83;5.37;;;5.30;99.90;;;;;;5040397;28;20857;-78
2023/01/10 05:11:44;;;;;;;20.10;5.07;;;5.30;99.90;;;;;;5033949;28;20263;-77
2023/01/10 05:14:11;;;;;;;23.80;5.33;;;5.20;99.90;;;;;;5078830;28;20223;-78
2023/01/10 05:16:39;;;;;;;23.17;5.17;;;5.20;99.90;;;;;;5071143;28;20200;-78
2023/01/10 05:19:06;;;;;;;28.33;5.53;;;5.10;99.90;;;;;;5041880;28;20238;-78
2023/01/10 05:21:33;;;;;;;26.80;5.93;;;5.10;99.90;;;;;;5032266;28;20215;-77
2023/01/10 05:24:00;;;;;;;26.53;5.80;;;5.00;99.90;;;;;;5040680;28;20216;-78
2023/01/10 05:26:27;;;;;;;32.07;5.70;;;5.00;99.90;;;;;;5023734;28;20224;-77
2023/01/10 05:28:54;;;;;;;25.67;5.27;;;5.00;99.90;;;;;;5062273;28;20473;-78
2023/01/10 05:31:21;;;;;;;23.80;5.13;;;4.90;99.90;;;;;;5063572;28;20294;-78
2023/01/10 05:33:50;;;;;;;31.50;5.57;;;4.90;99.90;;;;;;5076278;28;20300;-77
2023/01/10 05:36:18;;;;;;;23.60;5.53;;;4.90;99.90;;;;;;5035250;28;20206;-77
2023/01/10 05:38:45;;;;;;;25.63;5.37;;;4.90;99.90;;;;;;5064607;28;20229;-77
2023/01/10 05:41:12;;;;;;;26.90;6.03;;;4.90;99.90;;;;;;5058504;28;20203;-78
2023/01/10 05:43:39;;;;;;;27.90;5.67;;;4.90;99.90;;;;;;5030155;28;20292;-77
2023/01/10 05:46:06;;;;;;;29.73;6.00;;;4.80;99.90;;;;;;5047421;28;20207;-77
2023/01/10 05:48:33;;;;;;;27.33;6.50;;;4.80;99.90;;;;;;5059701;28;20341;-77
2023/01/10 05:51:02;;;;;;;23.33;4.73;;;4.80;99.90;;;;;;5059128;28;20202;-77
2023/01/10 05:53:29;;;;;;;25.60;6.13;;;4.80;99.90;;;;;;5065814;28;20221;-76
2023/01/10 05:55:58;;;;;;;27.00;5.60;;;4.80;99.90;;;;;;5048080;28;20213;-77
2023/01/10 05:58:25;;;;;;;23.83;5.50;;;4.70;99.90;;;;;;5053734;28;20298;-76
2023/01/10 06:00:53;;;;;;;22.33;5.73;;;4.70;99.90;;;;;;5034932;28;20558;-77
2023/01/10 06:03:20;;;;;;;30.77;5.97;;;6.10;99.90;;;;;;5027039;28;20199;-76
2023/01/10 06:05:54;;;;;;;23.63;5.27;;;4.80;99.90;;;;;;5051724;28;20304;-76
2023/01/10 06:08:24;;;;;;;26.13;5.60;;;4.70;99.90;;;;;;5045892;28;20224;-76
2023/01/10 06:10:51;;;;;;;26.23;5.83;;;4.70;99.90;;;;;;5045077;28;20195;-78
2023/01/10 06:13:18;;;;;;;29.53;6.47;;;4.70;99.90;;;;;;5047680;28;20673;-77
2023/01/10 06:15:45;;;;;;;25.83;5.63;;;4.70;99.90;;;;;;5039605;28;20641;-77
2023/01/10 06:18:12;;;;;;;23.57;5.57;;;4.20;99.90;;;;;;5047172;28;20281;-77
2023/01/10 06:20:39;;;;;;;33.23;6.30;;;4.70;99.90;;;;;;5054889;28;20248;-77
2023/01/10 06:23:06;;;;;;;22.77;5.33;;;4.70;99.90;;;;;;5057283;28;20193;-76
2023/01/10 06:25:39;;;;;;;26.77;5.73;;;4.80;99.90;;;;;;5037898;28;20318;-77
2023/01/10 06:28:06;;;;;;;20.27;5.40;;;4.90;99.90;;;;;;5041226;28;20222;-78
2023/01/10 06:30:34;;;;;;;29.23;5.53;;;4.90;99.90;;;;;;5056807;28;20216;-77
2023/01/10 06:33:02;;;;;;;25.10;6.17;;;4.90;99.90;;;;;;5038943;28;20674;-77
2023/01/10 06:35:29;;;;;;;26.57;5.63;;;4.90;99.90;;;;;;5052299;28;20694;-78
2023/01/10 06:37:57;;;;;;;30.70;6.40;;;4.90;99.90;;;;;;5047836;28;20280;-77
2023/01/10 06:40:27;;;;;;;26.27;5.80;;;5.00;99.90;;;;;;5053035;28;20215;-77
2023/01/10 06:42:56;;;;;;;36.77;6.63;;;5.00;99.90;;;;;;5037172;28;20302;-77
2023/01/10 06:45:23;;;;;;;27.70;6.63;;;5.00;99.90;;;;;;5046783;28;20286;-78
2023/01/10 06:47:50;;;;;;;33.27;6.20;;;5.10;99.90;;;;;;5036690;28;20234;-77
2023/01/10 06:50:17;;;;;;;31.37;6.53;;;5.10;99.90;;;;;;5029474;28;20750;-79
2023/01/10 06:52:44;;;;;;;26.27;6.43;;;5.10;99.90;;;;;;5049726;28;20216;-77
2023/01/10 06:55:12;;;;;;;30.10;6.73;;;5.10;99.90;;;;;;5047440;28;20909;-78
2023/01/10 06:57:38;;;;;;;28.90;5.97;;;5.20;99.90;;;;;;5038057;28;20250;-77
2023/01/10 07:00:10;;;;;;;26.30;5.83;;;5.20;99.90;;;;;;5039437;28;20273;-77
2023/01/10 07:02:37;;;;;;;30.20;5.93;;;5.30;99.90;;;;;;5040302;28;20289;-78
2023/01/10 07:05:04;;;;;;;24.77;6.10;;;5.40;99.90;;;;;;5046528;28;20210;-77
2023/01/10 07:07:32;;;;;;;25.27;6.00;;;5.40;99.90;;;;;;5030467;28;20661;-78
2023/01/10 07:09:59;;;;;;;33.90;6.07;;;5.50;99.90;;;;;;5033934;28;20590;-78
2023/01/10 07:12:26;;;;;;;27.37;5.87;;;5.50;99.90;;;;;;5066897;28;20216;-77
2023/01/10 07:14:53;;;;;;;20.87;4.83;;;5.60;99.90;;;;;;5049786;28;20237;-78
2023/01/10 07:17:21;;;;;;;27.73;5.80;;;5.60;99.90;;;;;;5043487;28;20223;-78
2023/01/10 07:19:48;;;;;;;23.17;5.13;;;5.70;99.90;;;;;;5033458;28;20606;-77
2023/01/10 07:22:15;;;;;;;19.83;5.30;;;5.70;99.90;;;;;;5035764;28;20275;-77
2023/01/10 07:24:42;;;;;;;25.67;6.23;;;5.70;99.90;;;;;;5072539;28;20198;-77
2023/01/10 07:27:09;;;;;;;27.77;5.77;;;5.70;99.90;;;;;;5035969;28;20705;-77
2023/01/10 07:29:37;;;;;;;25.80;5.80;;;5.80;99.90;;;;;;5047087;28;21006;-77
2023/01/10 07:32:06;;;;;;;32.30;7.50;;;5.80;99.90;;;;;;5056385;28;20224;-77
2023/01/10 07:34:35;;;;;;;30.63;7.23;;;5.80;99.90;;;;;;5046611;28;20561;-77
2023/01/10 07:37:02;;;;;;;28.00;6.87;;;5.80;99.90;;;;;;5024162;28;20236;-78
2023/01/10 07:39:29;;;;;;;24.50;5.30;;;5.90;99.90;;;;;;5036963;28;20232;-78
2023/01/10 07:41:56;;;;;;;29.50;5.53;;;5.90;99.90;;;;;;5040517;28;20241;-78
2023/01/10 07:44:23;;;;;;;31.60;6.13;;;5.90;99.90;;;;;;5033356;28;20399;-78
2023/01/10 07:46:49;;;;;;;29.90;5.93;;;5.90;99.90;;;;;;5033380;28;20203;-77
2023/01/10 07:49:17;;;;;;;28.30;6.53;;;5.90;99.90;;;;;;5046451;28;20237;-81
2023/01/10 07:51:45;;;;;;;18.77;5.33;;;6.00;99.90;;;;;;5062414;28;20298;-77
2023/01/10 07:54:12;;;;;;;24.80;6.30;;;6.00;99.90;;;;;;5017882;28;20227;-78
2023/01/10 07:56:46;;;;;;;20.60;5.73;;;6.00;99.90;;;;;;5034809;28;20218;-77
2023/01/10 07:59:13;;;;;;;31.90;5.50;;;6.10;99.90;;;;;;5025442;28;20266;-78
2023/01/10 08:01:40;;;;;;;34.13;6.10;;;6.10;99.90;;;;;;5041569;28;20253;-81
2023/01/10 08:04:08;;;;;;;26.03;5.80;;;6.20;99.90;;;;;;5041073;28;20201;-79
2023/01/10 08:06:35;;;;;;;30.67;6.63;;;6.20;99.90;;;;;;5023556;28;20567;-78
2023/01/10 08:09:04;;;;;;;30.90;6.37;;;6.30;99.90;;;;;;5035516;28;20225;-80
2023/01/10 08:11:31;;;;;;;24.70;6.07;;;6.30;99.90;;;;;;5019175;28;20278;-79
2023/01/10 08:13:58;;;;;;;30.77;6.80;;;6.20;99.90;;;;;;5018662;28;20214;-79
2023/01/10 08:16:25;;;;;;;31.90;6.20;;;6.20;99.90;;;;;;5034240;28;20214;-79
2023/01/10 08:18:52;;;;;;;29.90;6.07;;;6.10;99.90;;;;;;5031449;28;20221;-78
2023/01/10 08:21:20;;;;;;;27.73;6.80;;;6.10;99.90;;;;;;5036036;28;20533;-78
2023/01/10 08:23:47;;;;;;;32.83;6.37;;;6.00;99.90;;;;;;5018385;28;20217;-77
2023/01/10 08:26:15;;;;;;;32.67;7.03;;;5.90;99.90;;;;;;5046335;28;20214;-78
2023/01/10 08:28:42;;;;;;;36.60;7.07;;;5.90;99.90;;;;;;5038503;28;20258;-78
2023/01/10 08:31:09;;;;;;;31.77;6.50;;;5.80;99.90;;;;;;5017326;28;20206;-78
2023/01/10 08:33:38;;;;;;;40.40;6.90;;;5.70;99.90;;;;;;5035620;28;20206;-78
2023/01/10 08:36:05;;;;;;;31.87;7.23;;;5.70;99.90;;;;;;5039613;28;20740;-79
2023/01/10 08:38:33;;;;;;;27.23;6.10;;;5.60;99.90;;;;;;5035792;28;20227;-78
2023/01/10 08:41:00;;;;;;;29.23;6.40;;;5.60;99.90;;;;;;5033018;28;20231;-78
2023/01/10 08:43:29;;;;;;;33.90;6.60;;;5.60;99.90;;;;;;5050031;28;20227;-79
2023/01/10 08:45:55;;;;;;;31.27;7.40;;;5.60;99.90;;;;;;5046286;28;20720;-79
2023/01/10 08:48:23;;;;;;;26.87;5.90;;;5.60;99.90;;;;;;5035723;28;20225;-79
2023/01/10 08:50:49;;;;;;;26.30;6.00;;;5.70;99.90;;;;;;5030745;28;20326;-78
2023/01/10 08:53:16;;;;;;;31.83;7.33;;;5.70;99.90;;;;;;5026419;28;20808;-78
2023/01/10 08:55:43;;;;;;;28.67;6.13;;;5.80;99.90;;;;;;5042097;28;20235;-79
2023/01/10 08:58:10;;;;;;;35.73;6.10;;;5.80;99.90;;;;;;5046094;28;20239;-78
2023/01/10 09:00:39;;;;;;;32.83;5.63;;;5.90;99.90;;;;;;5041899;28;20212;-78
2023/01/10 09:03:06;;;;;;;29.90;6.53;;;6.00;99.90;;;;;;5033966;28;20552;-78
2023/01/10 09:05:33;;;;;;;27.43;6.27;;;6.00;99.90;;;;;;5033727;28;20201;-78
2023/01/10 09:08:02;;;;;;;24.23;6.00;;;6.10;99.90;;;;;;5029208;28;20258;-79
2023/01/10 09:10:29;;;;;;;22.30;4.53;;;6.10;99.90;;;;;;5036360;28;20205;-79
2023/01/10 09:13:00;;;;;;;28.97;6.07;;;5.00;99.90;;;;;;5025841;28;20299;-79
2023/01/10 09:15:29;;;;;;;32.17;6.63;;;6.30;99.90;;;;;;5036414;28;20220;-79
2023/01/10 09:17:58;;;;;;;27.70;6.00;;;6.30;99.90;;;;;;5022094;28;20231;-79
2023/01/10 09:20:27;;;;;;;29.87;6.90;;;6.50;99.90;;;;;;5039984;28;20209;-79
2023/01/10 09:22:55;;;;;;;27.83;6.10;;;6.60;99.90;;;;;;5018141;28;20711;-79
2023/01/10 09:25:22;;;;;;;29.17;6.83;;;6.60;99.90;;;;;;5019113;28;20235;-79
2023/01/10 09:27:57;;;;;;;40.43;7.43;;;6.80;99.90;;;;;;5020415;28;20231;-79
2023/01/10 09:30:25;;;;;;;29.27;6.50;;;7.10;99.90;;;;;;5028616;28;20256;-80
2023/01/10 09:32:53;;;;;;;25.20;5.83;;;7.10;99.90;;;;;;5035604;28;20219;-79
2023/01/10 09:35:22;;;;;;;38.43;7.37;;;7.30;99.90;;;;;;5029046;28;20233;-79
2023/01/10 09:37:54;;;;;;;22.57;5.03;;;7.60;99.90;;;;;;5028333;28;20271;-79
2023/01/10 09:40:29;;;;;;;26.93;5.80;;;7.70;99.90;;;;;;5043473;28;20212;-79
2023/01/10 09:43:09;;;;;;;27.70;5.67;;;7.80;99.90;;;;;;5052736;28;20204;-79
2023/01/10 09:45:46;;;;;;;30.47;6.10;;;7.90;99.90;;;;;;5050075;28;20275;-79
2023/01/10 09:48:20;;;;;;;32.30;6.73;;;8.00;99.90;;;;;;5029362;28;20225;-78
2023/01/10 09:51:05;;;;;;;29.97;5.93;;;8.10;99.90;;;;;;5026278;28;20215;-78
2023/01/10 09:53:34;;;;;;;16.03;4.57;;;8.20;99.90;;;;;;5051691;28;20215;-79
2023/01/10 09:56:01;;;;;;;23.33;5.93;;;8.30;99.90;;;;;;5031910;28;20789;-79
2023/01/10 09:58:32;;;;;;;27.87;6.40;;;8.30;99.90;;;;;;5039280;28;20695;-80
2023/01/10 10:01:02;;;;;;;25.37;6.17;;;8.40;99.90;;;;;;5033967;28;20212;-79
2023/01/10 10:03:34;;;;;;;23.97;5.30;;;8.40;99.90;;;;;;5035290;28;20248;-78
2023/01/10 10:06:04;;;;;;;31.33;6.30;;;8.60;99.90;;;;;;5038791;28;20207;-79
2023/01/10 10:08:32;;;;;;;26.30;5.90;;;8.60;99.90;;;;;;5025883;28;20240;-79
2023/01/10 10:11:09;;;;;;;19.60;5.30;;;8.70;99.90;;;;;;5023588;28;20702;-78
2023/01/10 10:13:47;;;;;;;18.37;5.93;;;8.80;99.90;;;;;;5027565;28;20207;-77
2023/01/10 10:16:23;;;;;;;26.33;5.97;;;8.90;99.90;;;;;;5044721;28;20297;-78
2023/01/10 10:19:02;;;;;;;21.53;5.53;;;8.90;99.90;;;;;;5023812;28;20256;-78
2023/01/10 10:21:40;;;;;;;20.37;5.13;;;8.90;99.90;;;;;;5026512;28;20218;-78
2023/01/10 10:24:21;;;;;;;33.30;6.07;;;9.00;99.90;;;;;;5044421;28;20201;-77
2023/01/10 10:26:56;;;;;;;27.47;6.30;;;9.00;99.90;;;;;;5032818;28;20202;-78
2023/01/10 10:29:54;;;;;;;22.43;5.20;;;9.10;99.90;;;;;;5019286;28;20233;-78
2023/01/10 10:32:51;;;;;;;21.90;5.17;;;9.10;99.90;;;;;;5018965;28;20210;-78
2023/01/10 10:35:27;;;;;;;27.20;6.50;;;9.10;99.90;;;;;;5044496;28;20229;-77
2023/01/10 10:37:58;;;;;;;22.43;5.90;;;9.10;99.90;;;;;;5036080;28;20224;-78
2023/01/10 10:40:32;;;;;;;28.27;6.00;;;9.10;99.90;;;;;;5027649;28;20213;-78
2023/01/10 10:43:10;;;;;;;27.20;6.10;;;9.10;99.90;;;;;;5048430;28;20547;-77
2023/01/10 10:45:44;;;;;;;29.27;6.70;;;9.20;99.90;;;;;;5037831;28;20205;-78
2023/01/10 10:48:16;;;;;;;24.53;5.73;;;9.20;99.90;;;;;;5066024;28;20295;-77
2023/01/10 10:50:51;;;;;;;27.27;5.80;;;9.30;99.90;;;;;;5035964;28;20224;-78
2023/01/10 10:53:20;;;;;;;25.17;5.70;;;9.30;99.90;;;;;;5054029;28;20200;-79
2023/01/10 10:55:47;;;;;;;25.97;5.53;;;9.40;99.90;;;;;;5047994;28;20221;-79
2023/01/10 10:58:14;;;;;;;21.70;5.33;;;9.50;99.90;;;;;;5054635;28;20251;-78
2023/01/10 11:00:41;;;;;;;23.30;6.23;;;9.60;99.90;;;;;;5049527;28;20221;-77
2023/01/10 11:03:22;;;;;;;22.93;6.20;;;9.60;99.90;;;;;;5060597;28;20210;-78
2023/01/10 11:05:50;;;;;;;22.03;4.43;;;9.60;99.90;;;;;;5055025;28;20204;-77
2023/01/10 11:08:20;;;;;;;25.97;5.40;;;9.70;99.90;;;;;;5059964;28;20226;-79
2023/01/10 11:10:49;;;;;;;17.80;4.63;;;9.70;99.90;;;;;;5069120;28;20185;-81
2023/01/10 11:13:22;;;;;;;29.77;5.67;;;9.80;99.90;;;;;;5054152;28;20261;-78
2023/01/10 11:15:50;;;;;;;22.33;5.23;;;9.80;99.90;;;;;;5044857;28;20228;-78
2023/01/10 11:18:20;;;;;;;22.87;5.50;;;9.90;99.90;;;;;;5042661;28;20229;-79
2023/01/10 11:20:50;;;;;;;25.30;5.97;;;9.90;99.90;;;;;;5051781;28;20201;-79
2023/01/10 11:23:32;;;;;;;21.73;5.13;;;9.90;99.90;;;;;;5030545;28;20313;-78
2023/01/10 11:25:59;;;;;;;24.90;4.97;;;9.90;99.90;;;;;;5051988;28;20199;-78
2023/01/10 11:28:30;;;;;;;20.33;5.77;;;9.90;99.90;;;;;;5049405;28;20251;-78
2023/01/10 11:30:58;;;;;;;27.23;7.63;;;9.90;99.90;;;;;;5055119;28;20300;-80
2023/01/10 11:33:29;;;;;;;20.17;5.73;;;9.90;99.90;;;;;;5023086;28;20220;-77
2023/01/10 11:36:00;;;;;;;17.87;4.67;;;9.90;99.90;;;;;;5037273;28;20298;-76
2023/01/10 11:38:29;;;;;;;19.57;4.67;;;10.00;99.90;;;;;;5037612;28;20236;-78
2023/01/10 11:41:00;;;;;;;24.10;5.07;;;10.00;99.90;;;;;;5043349;28;20228;-79
2023/01/10 11:43:32;;;;;;;21.47;5.27;;;10.00;99.90;;;;;;5045812;28;20274;-78
2023/01/10 11:46:02;;;;;;;23.87;5.50;;;10.00;99.90;;;;;;5021308;28;20209;-78
2023/01/10 11:48:44;;;;;;;21.40;5.07;;;10.10;99.90;;;;;;5040471;28;20260;-77
2023/01/10 11:51:22;;;;;;;20.33;5.27;;;10.10;99.90;;;;;;5045383;28;20210;-78
2023/01/10 11:53:57;;;;;;;27.03;6.00;;;10.10;99.90;;;;;;5021168;28;21086;-78
2023/01/10 11:56:27;;;;;;;27.27;5.17;;;10.10;99.90;;;;;;5036519;28;20239;-78
2023/01/10 11:58:54;;;;;;;26.90;5.40;;;10.10;99.90;;;;;;5042247;28;20275;-80
2023/01/10 12:01:31;;;;;;;18.67;5.23;;;10.20;99.90;;;;;;5020818;28;20248;-80
2023/01/10 12:03:58;;;;;;;28.80;5.87;;;10.20;99.90;;;;;;5027585;28;20684;-79
2023/01/10 12:06:27;;;;;;;23.90;5.27;;;10.10;99.90;;;;;;5023558;28;20211;-78
2023/01/10 12:08:57;;;;;;;19.30;4.93;;;10.10;99.90;;;;;;5034159;28;20546;-78
2023/01/10 12:11:28;;;;;;;25.53;6.07;;;10.10;99.90;;;;;;5006417;28;20259;-78
2023/01/10 12:13:58;;;;;;;23.20;5.47;;;10.10;99.90;;;;;;5007690;28;20221;-79
2023/01/10 12:16:27;;;;;;;23.13;5.37;;;10.10;99.90;;;;;;5001081;28;20244;-77
2023/01/10 12:18:56;;;;;;;22.33;5.33;;;10.00;99.90;;;;;;5017694;28;20232;-78
2023/01/10 12:21:31;;;;;;;27.43;5.67;;;10.10;99.90;;;;;;5028702;28;20205;-78
2023/01/10 12:24:03;;;;;;;26.23;6.07;;;10.20;99.90;;;;;;5007984;28;20215;-79
2023/01/10 12:26:32;;;;;;;22.30;5.67;;;10.20;99.90;;;;;;5026452;28;20222;-79
2023/01/10 12:29:07;;;;;;;21.87;5.83;;;10.20;99.90;;;;;;5028460;28;20248;-79
2023/01/10 12:31:37;;;;;;;26.23;5.90;;;10.20;99.90;;;;;;5010611;28;20211;-79
2023/01/10 12:34:12;;;;;;;26.03;6.40;;;10.20;99.90;;;;;;5004871;28;20209;-80
2023/01/10 12:36:48;;;;;;;23.43;5.50;;;10.30;99.90;;;;;;5013381;28;20260;-79
2023/01/10 12:39:21;;;;;;;20.13;5.13;;;10.30;99.90;;;;;;5030113;28;20746;-78
2023/01/10 12:45:13;;;;;;;25.27;5.67;;;10.40;99.90;;;;;;5028868;28;20224;-78
2023/01/10 12:47:56;;;;;;;21.27;5.13;;;10.40;99.90;;;;;;5028135;28;20217;-80
2023/01/10 12:50:28;;;;;;;24.50;5.40;;;10.40;99.90;;;;;;5030923;28;20234;-78
2023/01/10 12:53:02;;;;;;;21.67;4.43;;;10.40;99.90;;;;;;5050565;28;20196;-79
2023/01/10 12:55:36;;;;;;;17.40;4.70;;;10.40;99.90;;;;;;5033889;28;20221;-80
2023/01/10 12:58:05;;;;;;;18.73;4.70;;;10.30;99.90;;;;;;5018834;28;20247;-80
2023/01/10 13:00:35;;;;;;;22.97;5.30;;;10.30;99.90;;;;;;5048642;28;20213;-79
2023/01/10 13:03:09;;;;;;;26.57;5.60;;;10.30;99.90;;;;;;5018838;28;20311;-77
2023/01/10 13:05:36;;;;;;;24.33;5.70;;;10.30;99.90;;;;;;5013337;28;20207;-77
2023/01/10 13:08:06;;;;;;;17.03;4.17;;;10.40;99.90;;;;;;5013015;28;20242;-78
2023/01/10 13:10:38;;;;;;;19.70;4.90;;;10.30;99.90;;;;;;5036465;28;20213;-78
2023/01/10 13:13:15;;;;;;;19.17;4.43;;;10.30;99.90;;;;;;5034542;28;20206;-77
2023/01/10 13:15:49;;;;;;;23.70;4.90;;;11.20;99.90;;;;;;5016738;28;20284;-78